createdAt,value
2018-03-19T19:12:29.443Z,93800.02
2018-03-19T19:15:59.931Z,93790.78
2018-03-19T19:18:26.977Z,93790.41
2018-03-19T19:20:53.215Z,93787.44
2018-03-19T19:23:20.066Z,93787.78
2018-03-19T19:25:46.790Z,93774.94
2018-03-19T19:28:13.041Z,93776.36
2018-03-19T19:30:39.278Z,93776.21
2018-03-19T19:33:05.508Z,93778.66
2018-03-19T19:35:31.869Z,93772.25
2018-03-19T19:37:58.342Z,93779.03
2018-03-19T19:40:24.639Z,93772.31
2018-03-19T19:42:51.572Z,93783.55
2018-03-19T19:45:17.771Z,93786.06
2018-03-19T19:47:44.057Z,93788.89
2018-03-19T19:50:10.367Z,93791.66
2018-03-19T19:52:36.843Z,93783.66
2018-03-19T19:55:03.162Z,93789.08
2018-03-19T19:57:29.603Z,93789.75
2018-03-19T20:04:02.598Z,93780.87
2018-03-19T20:06:29.054Z,93782.70
2018-03-19T20:08:55.972Z,93770.23
2018-03-19T20:11:22.317Z,93768.01
2018-03-19T20:13:49.967Z,93763.63
2018-03-19T20:17:52.374Z,93766.75
2018-03-19T20:20:18.602Z,93774.81
2018-03-19T20:22:44.931Z,93769.50
2018-03-19T20:25:12.384Z,93766.59
2018-03-19T20:27:39.248Z,93764.17
2018-03-19T20:30:05.534Z,93760.50
2018-03-19T20:32:32.423Z,93755.53
2018-03-19T20:34:59.348Z,93751.41
2018-03-19T20:37:25.593Z,93756.69
2018-03-19T20:39:51.831Z,93753.89
2018-03-19T20:42:18.092Z,93752.28
2018-03-19T20:44:45.017Z,93753.23
2018-03-19T20:47:11.891Z,93750.67
2018-03-19T20:49:38.147Z,93752.35
2018-03-19T20:52:05.064Z,93758.70
2018-03-19T20:54:31.373Z,93767.02
2018-03-19T20:56:57.866Z,93755.48
2018-03-19T20:59:24.680Z,93755.70
2018-03-19T21:01:50.931Z,93751.16
2018-03-19T21:04:17.171Z,93754.59
2018-03-19T21:06:43.695Z,93756.42
2018-03-19T21:09:09.968Z,93743.95
